createdAt,value
2019-05-14T00:01:51.412Z,64.50
2019-05-14T00:06:55.095Z,65.20
2019-05-14T00:12:02.267Z,65.50
2019-05-14T00:17:05.957Z,65.50
2019-05-14T00:22:11.649Z,65.70
2019-05-14T00:27:18.371Z,66.30
2019-05-14T00:32:24.490Z,66.90
2019-05-14T00:37:32.178Z,66.30
2019-05-14T00:42:36.848Z,67.30
2019-05-14T00:47:41.938Z,67.30
2019-05-14T00:52:51.489Z,67.80
2019-05-14T00:57:56.804Z,68.10
2019-05-14T01:03:02.186Z,69.30
2019-05-14T01:08:07.335Z,69.00
2019-05-14T01:13:12.171Z,69.50
2019-05-14T01:18:16.598Z,70.30
2019-05-14T01:23:21.728Z,71.10
2019-05-14T01:28:27.317Z,72.40
2019-05-14T01:33:32.078Z,71.10
2019-05-14T01:38:36.786Z,71.40
2019-05-14T01:43:42.884Z,71.60
2019-05-14T01:48:47.408Z,72.10
2019-05-14T01:53:52.229Z,72.70
2019-05-14T01:58:58.569Z,72.50
2019-05-14T02:04:03.194Z,73.20
2019-05-14T02:09:11.169Z,73.00
2019-05-14T02:14:17.355Z,73.50
2019-05-14T02:19:23.569Z,73.60
2019-05-14T02:24:28.126Z,73.70
2019-05-14T02:29:32.644Z,74.20
2019-05-14T02:34:40.027Z,74.70
2019-05-14T02:39:45.283Z,75.40
2019-05-14T02:44:49.938Z,75.60
2019-05-14T02:49:58.759Z,75.90
2019-05-14T02:55:04.580Z,75.80
2019-05-14T03:00:10.632Z,76.10
2019-05-14T03:05:19.293Z,76.30
2019-05-14T03:10:23.177Z,76.80
2019-05-14T03:15:30.221Z,77.00
2019-05-14T03:20:39.353Z,76.90
2019-05-14T03:25:49.141Z,77.30
2019-05-14T03:30:53.428Z,77.40
2019-05-14T03:36:07.483Z,77.30
2019-05-14T03:41:09.102Z,77.60
2019-05-14T03:46:13.985Z,78.10
2019-05-14T03:51:31.954Z,79.00
2019-05-14T03:56:39.423Z,78.10
2019-05-14T04:01:43.106Z,78.30
2019-05-14T04:06:49.846Z,79.10
2019-05-14T04:11:59.223Z,79.30
2019-05-14T04:17:13.790Z,80.40
2019-05-14T04:22:19.000Z,80.60
2019-05-14T04:27:25.376Z,79.90
2019-05-14T04:32:31.614Z,80.40
2019-05-14T04:37:39.934Z,81.00
2019-05-14T04:42:44.463Z,81.40
2019-05-14T04:47:49.786Z,81.50
2019-05-14T04:53:05.383Z,82.30
2019-05-14T04:58:03.309Z,82.60
2019-05-14T05:03:12.600Z,83.70
2019-05-14T05:08:15.309Z,82.90
2019-05-14T05:13:19.699Z,83.00
2019-05-14T05:18:24.117Z,82.30
2019-05-14T05:23:28.543Z,82.80
2019-05-14T05:28:32.926Z,82.10
2019-05-14T05:33:38.346Z,82.60
2019-05-14T05:38:43.032Z,81.70
2019-05-14T05:43:48.360Z,82.00
2019-05-14T05:49:00.799Z,81.40
2019-05-14T05:54:24.508Z,81.00
2019-05-14T05:59:29.392Z,80.90
2019-05-14T06:04:35.616Z,80.60
2019-05-14T06:09:40.000Z,80.50
2019-05-14T06:14:44.389Z,80.30
2019-05-14T06:19:48.881Z,79.60
2019-05-14T06:24:53.267Z,78.70
2019-05-14T06:29:58.328Z,78.80
2019-05-14T06:35:04.389Z,78.00
2019-05-14T06:40:09.792Z,77.30
2019-05-14T06:45:14.280Z,76.60
2019-05-14T06:50:19.073Z,76.60
2019-05-14T06:55:23.673Z,76.60
2019-05-14T07:00:28.788Z,76.20
2019-05-14T07:05:35.070Z,76.20
2019-05-14T07:10:39.667Z,76.00
2019-05-14T07:15:44.647Z,75.80
2019-05-14T07:20:49.049Z,74.70
2019-05-14T07:25:53.444Z,74.50
2019-05-14T07:30:59.371Z,73.70
2019-05-14T07:36:04.026Z,72.00
2019-05-14T07:41:09.158Z,71.50
2019-05-14T07:46:13.915Z,70.60
2019-05-14T07:51:19.091Z,70.50
2019-05-14T07:56:23.792Z,70.40
2019-05-14T08:01:28.411Z,66.60
2019-05-14T08:06:32.851Z,66.40
2019-05-14T08:11:38.724Z,64.30
2019-05-14T08:16:43.423Z,64.50
2019-05-14T08:21:48.179Z,64.80
2019-05-14T08:26:52.757Z,62.90
2019-05-14T08:31:58.331Z,63.60
2019-05-14T08:37:04.304Z,63.90
2019-05-14T08:42:09.006Z,63.70
2019-05-14T08:47:13.851Z,63.70
2019-05-14T08:52:19.195Z,63.00
2019-05-14T08:57:23.947Z,59.20
2019-05-14T09:02:28.702Z,59.50
2019-05-14T09:07:33.209Z,60.30
2019-05-14T09:12:38.837Z,58.20
2019-05-14T09:17:43.512Z,58.60
2019-05-14T09:22:48.984Z,56.50
2019-05-14T09:27:53.673Z,56.20
2019-05-14T09:32:59.421Z,56.10
2019-05-14T09:38:04.062Z,55.50
2019-05-14T09:43:09.193Z,55.60
2019-05-14T09:48:13.785Z,55.00
2019-05-14T09:53:18.274Z,53.40
2019-05-14T09:58:22.662Z,53.90
2019-05-14T10:03:27.287Z,52.80
2019-05-14T10:08:31.720Z,51.80
2019-05-14T10:13:36.124Z,51.10
2019-05-14T10:18:40.510Z,51.10
2019-05-14T10:23:45.091Z,50.00
2019-05-14T10:28:49.560Z,48.10
2019-05-14T10:33:54.022Z,47.30
2019-05-14T10:38:59.084Z,46.30
2019-05-14T10:44:03.551Z,46.70
2019-05-14T10:49:19.946Z,46.80
2019-05-14T10:54:23.658Z,44.80
2019-05-14T10:59:20.455Z,46.40
2019-05-14T11:04:24.863Z,45.30
2019-05-14T11:09:29.285Z,44.80
2019-05-14T11:14:33.828Z,44.80
2019-05-14T11:19:38.998Z,42.80
2019-05-14T11:25:03.506Z,41.90
2019-05-14T11:30:09.116Z,40.10
2019-05-14T11:35:13.913Z,40.70
2019-05-14T11:40:19.969Z,41.80
2019-05-14T11:45:26.358Z,40.70
2019-05-14T11:50:30.802Z,40.10
2019-05-14T11:55:35.262Z,40.50
2019-05-14T12:00:39.722Z,38.60
2019-05-14T12:05:44.216Z,38.90
2019-05-14T12:10:48.656Z,38.40
2019-05-14T12:15:53.090Z,38.70
2019-05-14T12:20:59.420Z,37.20
2019-05-14T12:26:03.734Z,37.90
2019-05-14T12:31:09.381Z,38.90
2019-05-14T12:36:14.058Z,38.50
2019-05-14T12:41:19.415Z,37.80
2019-05-14T12:46:24.079Z,38.10
2019-05-14T12:51:28.589Z,38.60
2019-05-14T12:56:33.062Z,37.00
2019-05-14T13:01:37.476Z,37.60
2019-05-14T13:06:41.929Z,36.90
2019-05-14T13:11:48.043Z,38.00
2019-05-14T13:16:54.564Z,37.80
2019-05-14T13:22:13.076Z,36.70
2019-05-14T13:27:05.368Z,37.40
2019-05-14T13:32:12.315Z,36.50
2019-05-14T13:37:16.052Z,35.70
2019-05-14T13:42:20.461Z,36.40
2019-05-14T13:47:25.245Z,35.80
2019-05-14T13:52:29.639Z,35.90
2019-05-14T13:57:34.016Z,34.10
2019-05-14T14:02:38.514Z,34.90
2019-05-14T14:07:44.840Z,35.80
2019-05-14T14:12:49.823Z,35.50
2019-05-14T14:17:54.524Z,34.10
2019-05-14T14:23:09.200Z,34.20
2019-05-14T14:28:05.118Z,34.00
2019-05-14T14:33:09.592Z,33.50
2019-05-14T14:38:14.038Z,33.70
2019-05-14T14:43:18.996Z,34.30
2019-05-14T14:48:23.654Z,34.50
2019-05-14T14:53:46.104Z,34.20
2019-05-14T14:58:34.172Z,34.40
2019-05-14T15:03:38.886Z,34.70
2019-05-14T15:08:43.330Z,34.70
2019-05-14T15:13:48.248Z,34.00
2019-05-14T15:18:52.958Z,33.30
2019-05-14T15:24:09.412Z,33.20
2019-05-14T15:29:03.752Z,32.80
2019-05-14T15:34:09.021Z,33.20
2019-05-14T15:39:13.633Z,33.50
2019-05-14T15:44:19.564Z,34.00
2019-05-14T15:49:25.331Z,34.10
2019-05-14T15:54:42.470Z,33.30
2019-05-14T15:59:35.935Z,33.70
2019-05-14T16:04:40.541Z,34.60
2019-05-14T16:09:44.970Z,34.90
2019-05-14T16:14:49.805Z,34.60
2019-05-14T16:19:54.294Z,34.80
2019-05-14T16:25:00.954Z,34.90
2019-05-14T16:30:09.429Z,35.40
2019-05-14T16:35:13.414Z,35.30
2019-05-14T16:40:19.195Z,35.70
2019-05-14T16:45:28.911Z,36.20
2019-05-14T16:50:33.554Z,36.80
2019-05-14T16:55:38.501Z,36.50
2019-05-14T17:00:43.118Z,36.70
2019-05-14T17:05:48.683Z,36.70
2019-05-14T17:10:53.240Z,37.00
2019-05-14T17:15:58.912Z,38.00
2019-05-14T17:21:04.981Z,37.40
2019-05-14T17:26:09.414Z,37.60
2019-05-14T17:31:13.844Z,37.80
2019-05-14T17:36:18.877Z,37.70
2019-05-14T17:41:23.625Z,37.30
2019-05-14T17:46:28.970Z,37.30
2019-05-14T17:51:33.672Z,37.50
2019-05-14T17:56:39.046Z,38.00
2019-05-14T18:01:44.846Z,38.00
2019-05-14T18:06:49.362Z,38.10
2019-05-14T18:11:53.819Z,38.30
2019-05-14T18:16:58.624Z,38.50
2019-05-14T18:22:03.214Z,38.20
2019-05-14T18:27:08.343Z,38.30
2019-05-14T18:32:12.981Z,38.70
2019-05-14T18:37:18.288Z,39.10
2019-05-14T18:42:22.956Z,39.10
2019-05-14T18:47:29.048Z,39.10
2019-05-14T18:52:35.482Z,39.30
2019-05-14T18:57:39.895Z,39.50
2019-05-14T19:02:44.253Z,39.60
2019-05-14T19:07:48.860Z,40.00
2019-05-14T19:12:54.125Z,40.20
2019-05-14T19:18:01.193Z,41.10
2019-05-14T19:23:04.618Z,40.70
2019-05-14T19:28:09.219Z,41.00
2019-05-14T19:33:13.704Z,41.00
2019-05-14T19:38:21.679Z,41.60
2019-05-14T19:43:31.572Z,41.70
2019-05-14T19:48:41.518Z,42.20
2019-05-14T19:53:54.849Z,42.50
2019-05-14T19:58:59.843Z,43.00
2019-05-14T20:04:31.111Z,43.20
2019-05-14T20:09:39.062Z,43.30
2019-05-14T20:14:44.675Z,43.80
2019-05-14T20:19:51.917Z,43.80
2019-05-14T20:25:11.551Z,44.20
2019-05-14T20:30:04.515Z,44.40
2019-05-14T20:35:10.543Z,44.70
2019-05-14T20:40:30.488Z,44.90
2019-05-14T20:45:38.949Z,45.20
2019-05-14T20:50:47.827Z,45.70
2019-05-14T20:55:54.084Z,45.80
2019-05-14T21:01:02.427Z,46.30
2019-05-14T21:06:09.050Z,46.60
2019-05-14T21:11:19.108Z,46.90
2019-05-14T21:16:28.416Z,47.20
2019-05-14T21:21:45.604Z,47.40
2019-05-14T21:26:51.861Z,47.70
2019-05-14T21:32:01.351Z,47.90
2019-05-14T21:37:06.181Z,48.10
2019-05-14T21:42:12.569Z,48.70
2019-05-14T21:47:22.488Z,49.60
2019-05-14T21:52:29.031Z,49.00
2019-05-14T21:57:37.924Z,49.50
2019-05-14T22:02:49.107Z,50.00
2019-05-14T22:07:53.102Z,50.50
2019-05-14T22:12:59.562Z,50.80
2019-05-14T22:18:14.931Z,51.20
2019-05-14T22:23:13.989Z,52.10
2019-05-14T22:28:19.062Z,52.80
2019-05-14T22:33:28.318Z,53.50
2019-05-14T22:38:32.632Z,53.80
2019-05-14T22:43:43.614Z,54.70
2019-05-14T22:48:51.266Z,54.80
2019-05-14T22:53:58.858Z,55.50
2019-05-14T22:59:03.445Z,55.90
2019-05-14T23:04:08.997Z,56.90
2019-05-14T23:09:18.447Z,57.10
2019-05-14T23:14:20.457Z,57.70
2019-05-14T23:19:25.234Z,58.20
2019-05-14T23:24:31.407Z,59.50
2019-05-14T23:29:39.405Z,59.60
2019-05-14T23:34:45.150Z,60.20
2019-05-14T23:39:51.056Z,60.70
2019-05-14T23:44:59.361Z,61.30
2019-05-14T23:50:04.211Z,62.30
2019-05-14T23:55:12.495Z,62.50
